createdAt,value
2019-03-25T00:00:45.169Z,10.60
2019-03-25T00:02:48.608Z,10.60
2019-03-25T00:04:51.989Z,10.50
2019-03-25T00:06:55.380Z,10.50
2019-03-25T00:09:05.207Z,10.50
2019-03-25T00:11:05.224Z,10.50
2019-03-25T00:13:08.619Z,10.50
2019-03-25T00:15:12.329Z,10.40
2019-03-25T00:17:15.636Z,10.40
2019-03-25T00:19:19.025Z,10.40
2019-03-25T00:21:22.303Z,10.40
2019-03-25T00:23:25.665Z,10.40
2019-03-25T00:25:29.076Z,10.40
2019-03-25T00:27:32.358Z,10.40
2019-03-25T00:29:35.648Z,10.40
2019-03-25T00:31:40.633Z,10.40
2019-03-25T00:33:43.933Z,10.40
2019-03-25T00:35:47.304Z,10.40
2019-03-25T00:37:50.699Z,10.40
2019-03-25T00:39:54.074Z,10.40
2019-03-25T00:41:57.437Z,10.40
2019-03-25T00:44:00.761Z,10.40
2019-03-25T00:46:04.134Z,10.40
2019-03-25T00:48:07.492Z,10.40
2019-03-25T00:50:10.939Z,10.40
2019-03-25T00:52:14.302Z,10.40
2019-03-25T00:54:20.638Z,10.40
2019-03-25T00:56:24.038Z,10.40
2019-03-25T00:58:27.356Z,10.40
2019-03-25T01:00:30.726Z,10.40
2019-03-25T01:02:34.074Z,10.40
2019-03-25T01:04:37.422Z,10.40
2019-03-25T01:06:40.775Z,10.40
2019-03-25T01:08:44.336Z,10.30
2019-03-25T01:10:48.017Z,10.30
2019-03-25T01:12:51.436Z,10.30
2019-03-25T01:14:54.855Z,10.30
2019-03-25T01:16:59.696Z,10.30
2019-03-25T01:19:02.996Z,10.30
2019-03-25T01:21:06.750Z,10.30
2019-03-25T01:23:10.035Z,10.30
2019-03-25T01:25:13.400Z,10.30
2019-03-25T01:27:16.791Z,10.30
2019-03-25T01:29:20.143Z,10.30
2019-03-25T01:31:28.693Z,10.30
2019-03-25T01:33:36.308Z,10.30
2019-03-25T01:35:49.222Z,10.30
2019-03-25T01:37:59.928Z,10.30
2019-03-25T01:40:28.940Z,10.30
2019-03-25T01:42:40.692Z,10.20
2019-03-25T01:44:50.754Z,10.20
2019-03-25T01:47:02.155Z,10.20
2019-03-25T01:49:05.938Z,10.30
2019-03-25T01:51:09.360Z,10.20
2019-03-25T01:53:15.878Z,10.20
2019-03-25T01:55:19.170Z,10.20
2019-03-25T01:57:22.546Z,10.20
2019-03-25T01:59:25.950Z,10.20
2019-03-25T02:01:29.476Z,10.20
2019-03-25T02:03:33.768Z,10.20
2019-03-25T02:05:40.189Z,10.20
2019-03-25T02:07:43.554Z,10.20
2019-03-25T02:09:46.872Z,10.20
2019-03-25T02:11:50.322Z,10.20
2019-03-25T02:13:53.674Z,10.20
2019-03-25T02:15:57.044Z,10.20
2019-03-25T02:18:03.111Z,10.20
2019-03-25T02:20:06.604Z,10.20
2019-03-25T02:22:09.902Z,10.20
2019-03-25T02:24:13.268Z,10.20
2019-03-25T02:26:16.913Z,10.20
2019-03-25T02:28:20.210Z,10.20
2019-03-25T02:30:23.595Z,10.20
2019-03-25T02:32:28.606Z,10.20
2019-03-25T02:34:31.889Z,10.20
2019-03-25T02:36:36.584Z,10.20
2019-03-25T02:38:39.946Z,10.10
2019-03-25T02:40:43.239Z,10.20
2019-03-25T02:42:46.548Z,10.20
2019-03-25T02:44:49.904Z,10.20
2019-03-25T02:46:54.120Z,10.20
2019-03-25T02:48:57.561Z,10.20
2019-03-25T02:51:08.440Z,10.20
2019-03-25T02:53:12.322Z,10.20
2019-03-25T02:55:15.706Z,10.20
2019-03-25T02:57:19.055Z,10.20
2019-03-25T02:59:22.413Z,10.20
2019-03-25T03:01:30.029Z,10.20
2019-03-25T03:03:33.321Z,10.20
2019-03-25T03:05:39.851Z,10.20
2019-03-25T03:07:43.164Z,10.20
2019-03-25T03:09:46.865Z,10.20
2019-03-25T03:11:50.245Z,10.20
2019-03-25T03:13:53.636Z,10.20
2019-03-25T03:15:57.076Z,10.20
2019-03-25T03:18:03.319Z,10.20
2019-03-25T03:20:07.400Z,10.20
2019-03-25T03:22:10.760Z,10.20
2019-03-25T03:24:14.134Z,10.20
2019-03-25T03:26:17.519Z,10.20
2019-03-25T03:28:20.898Z,10.20
2019-03-25T03:30:24.256Z,10.20
2019-03-25T03:32:27.630Z,10.20
2019-03-25T03:34:31.004Z,10.20
2019-03-25T03:36:35.991Z,10.20
2019-03-25T03:38:39.388Z,10.20
2019-03-25T03:41:02.179Z,10.30
2019-03-25T03:43:05.528Z,10.20
2019-03-25T03:45:08.936Z,10.30
2019-03-25T03:47:12.217Z,10.30
2019-03-25T03:49:15.520Z,10.30
2019-03-25T03:51:18.932Z,10.30
2019-03-25T03:53:22.275Z,10.20
2019-03-25T03:55:25.652Z,10.20
2019-03-25T03:57:29.058Z,10.20
2019-03-25T03:59:32.351Z,10.20
2019-03-25T04:01:35.641Z,10.20
2019-03-25T04:03:38.990Z,10.10
2019-03-25T04:05:42.341Z,10.10
2019-03-25T04:07:45.698Z,10.20
2019-03-25T04:09:49.106Z,10.20
2019-03-25T04:11:55.186Z,10.10
2019-03-25T04:13:58.574Z,10.10
2019-03-25T04:16:02.055Z,10.20
2019-03-25T04:18:05.405Z,10.10
2019-03-25T04:20:08.766Z,10.10
2019-03-25T04:22:12.168Z,10.10
2019-03-25T04:24:15.534Z,10.10
2019-03-25T04:26:28.299Z,10.10
2019-03-25T04:28:23.977Z,10.10
2019-03-25T04:30:27.406Z,10.10
2019-03-25T04:32:30.757Z,10.10
2019-03-25T04:34:34.164Z,10.10
2019-03-25T04:36:37.569Z,10.10
2019-03-25T04:38:40.921Z,10.10
2019-03-25T04:40:44.201Z,10.10
2019-03-25T04:42:47.525Z,10.10
2019-03-25T04:44:50.881Z,10.10
2019-03-25T04:46:57.059Z,10.10
2019-03-25T04:49:00.567Z,10.10
2019-03-25T04:51:05.495Z,10.10
2019-03-25T04:53:11.839Z,10.10
2019-03-25T04:55:15.223Z,10.00
2019-03-25T04:57:18.615Z,10.00
2019-03-25T04:59:22.267Z,10.00
2019-03-25T05:01:25.667Z,10.00
2019-03-25T05:03:30.665Z,10.00
2019-03-25T05:05:36.159Z,9.90
2019-03-25T05:07:39.167Z,9.90
2019-03-25T05:09:42.475Z,9.90
2019-03-25T05:11:45.751Z,9.90
2019-03-25T05:13:49.050Z,9.90
2019-03-25T05:15:52.349Z,9.90
2019-03-25T05:17:55.744Z,9.90
2019-03-25T05:19:59.145Z,9.90
2019-03-25T05:22:05.589Z,9.80
2019-03-25T05:24:08.923Z,9.80
2019-03-25T05:26:12.285Z,9.80
2019-03-25T05:28:15.621Z,9.80
2019-03-25T05:30:19.003Z,9.80
2019-03-25T05:32:22.279Z,9.80
2019-03-25T05:34:25.624Z,9.70
2019-03-25T05:36:31.938Z,9.80
2019-03-25T05:38:35.221Z,9.70
2019-03-25T05:40:38.990Z,9.70
2019-03-25T05:42:42.325Z,9.70
2019-03-25T05:44:45.714Z,9.70
2019-03-25T05:46:49.005Z,9.70
2019-03-25T05:48:52.404Z,9.70
2019-03-25T05:50:55.737Z,9.60
2019-03-25T05:52:59.094Z,9.60
2019-03-25T05:55:02.433Z,9.70
2019-03-25T05:57:05.741Z,9.70
2019-03-25T05:59:09.102Z,9.60
2019-03-25T06:01:12.566Z,9.60
2019-03-25T06:03:16.202Z,9.60
2019-03-25T06:05:19.479Z,9.60
2019-03-25T06:07:22.870Z,9.70
2019-03-25T06:09:26.229Z,9.60
2019-03-25T06:11:29.580Z,9.70
2019-03-25T06:13:32.966Z,9.70
2019-03-25T06:15:36.246Z,9.70
2019-03-25T06:17:39.624Z,9.70
2019-03-25T06:19:43.001Z,9.70
2019-03-25T06:21:49.353Z,9.70
2019-03-25T06:23:52.624Z,9.70
2019-03-25T06:25:55.910Z,9.70
2019-03-25T06:27:59.277Z,9.70
2019-03-25T06:30:03.666Z,9.80
2019-03-25T06:32:26.471Z,9.70
2019-03-25T06:34:29.795Z,9.80
2019-03-25T06:36:33.152Z,9.80
2019-03-25T06:38:36.474Z,9.90
2019-03-25T06:40:39.783Z,9.90
2019-03-25T06:42:43.077Z,9.90
2019-03-25T06:44:46.402Z,10.00
2019-03-25T06:46:51.588Z,9.90
2019-03-25T06:48:54.949Z,10.00
2019-03-25T06:50:58.355Z,10.00
2019-03-25T06:53:01.639Z,10.00
2019-03-25T06:55:28.810Z,10.00
2019-03-25T06:57:33.832Z,10.00
2019-03-25T06:59:37.204Z,10.00
2019-03-25T07:01:40.554Z,10.00
2019-03-25T07:03:43.872Z,10.00
2019-03-25T07:05:47.166Z,10.00
2019-03-25T07:07:53.488Z,10.00
2019-03-25T07:09:56.884Z,10.00
2019-03-25T07:12:00.328Z,10.00
2019-03-25T07:14:04.030Z,10.00
2019-03-25T07:16:07.360Z,10.00
2019-03-25T07:18:10.704Z,10.00
2019-03-25T07:20:14.100Z,10.10
2019-03-25T07:22:17.494Z,10.20
2019-03-25T07:24:20.784Z,10.40
2019-03-25T07:26:24.990Z,10.60
2019-03-25T07:28:28.278Z,10.90
2019-03-25T07:30:31.892Z,11.30
2019-03-25T07:32:35.303Z,11.60
2019-03-25T07:34:41.194Z,11.90
2019-03-25T07:36:43.818Z,12.20
2019-03-25T07:38:47.225Z,12.50
2019-03-25T07:40:50.596Z,12.80
2019-03-25T07:42:57.078Z,13.00
2019-03-25T07:45:00.444Z,13.20
2019-03-25T07:47:03.774Z,13.40
2019-03-25T07:49:07.052Z,13.50
2019-03-25T07:51:10.500Z,13.60
2019-03-25T07:53:13.820Z,13.60
2019-03-25T07:55:17.169Z,13.60
2019-03-25T07:57:20.531Z,13.60
2019-03-25T07:59:24.008Z,13.50
2019-03-25T08:01:27.325Z,13.50
2019-03-25T08:03:33.547Z,13.40
2019-03-25T08:05:36.984Z,13.40
2019-03-25T08:07:40.338Z,13.30
2019-03-25T08:09:43.733Z,13.30
2019-03-25T08:11:47.125Z,13.30
2019-03-25T08:13:50.597Z,13.30
2019-03-25T08:15:53.959Z,13.30
2019-03-25T08:17:57.356Z,13.30
2019-03-25T08:20:00.736Z,13.40
2019-03-25T08:22:04.091Z,13.40
2019-03-25T08:24:07.489Z,13.50
2019-03-25T08:26:10.881Z,13.60
2019-03-25T08:28:14.263Z,13.60
2019-03-25T08:30:17.642Z,13.70
2019-03-25T08:32:21.065Z,13.70
2019-03-25T08:34:24.421Z,13.70
2019-03-25T08:36:27.795Z,13.70
2019-03-25T08:38:31.117Z,13.60
2019-03-25T08:40:34.469Z,13.60
2019-03-25T08:42:37.761Z,13.40
2019-03-25T08:44:41.157Z,13.30
2019-03-25T08:46:44.457Z,13.20
2019-03-25T08:48:47.829Z,13.00
2019-03-25T08:50:51.149Z,13.00
2019-03-25T08:52:54.457Z,12.80
2019-03-25T08:55:17.255Z,12.70
2019-03-25T08:57:20.640Z,12.70
2019-03-25T08:59:23.985Z,12.60
2019-03-25T09:01:27.348Z,12.50
2019-03-25T09:03:30.707Z,12.50
2019-03-25T09:05:34.081Z,12.50
2019-03-25T09:07:37.445Z,12.40
2019-03-25T09:09:40.759Z,12.40
2019-03-25T09:11:44.067Z,12.20
2019-03-25T09:13:47.468Z,12.20
2019-03-25T09:15:50.872Z,12.00
2019-03-25T09:17:54.540Z,11.90
2019-03-25T09:20:00.651Z,11.80
2019-03-25T09:22:07.041Z,11.60
2019-03-25T09:24:13.127Z,11.60
2019-03-25T09:26:16.809Z,11.50
2019-03-25T09:28:24.493Z,11.50
2019-03-25T09:30:45.512Z,11.50
2019-03-25T09:32:48.800Z,11.50
2019-03-25T09:34:52.196Z,11.40
2019-03-25T09:36:55.562Z,11.40
2019-03-25T09:38:58.856Z,11.40
2019-03-25T09:41:05.241Z,11.50
2019-03-25T09:43:08.615Z,11.50
2019-03-25T09:45:12.486Z,11.60
2019-03-25T09:47:15.845Z,11.60
2019-03-25T09:49:19.126Z,11.60
2019-03-25T09:51:22.449Z,11.70
2019-03-25T09:53:28.481Z,11.70
2019-03-25T09:55:31.771Z,11.70
2019-03-25T09:57:35.155Z,11.70
2019-03-25T09:59:38.517Z,11.80
2019-03-25T10:01:41.928Z,11.80
2019-03-25T10:03:45.292Z,11.80
2019-03-25T10:05:48.595Z,11.80
2019-03-25T10:07:51.965Z,11.80
2019-03-25T10:09:55.379Z,11.90
2019-03-25T10:11:58.740Z,11.90
2019-03-25T10:14:02.114Z,12.00
2019-03-25T10:16:05.493Z,11.90
2019-03-25T10:18:08.981Z,12.00
2019-03-25T10:20:12.547Z,12.00
2019-03-25T10:22:18.705Z,12.00
2019-03-25T10:24:27.575Z,12.10
2019-03-25T10:26:27.847Z,12.10
2019-03-25T10:28:31.243Z,12.10
2019-03-25T10:30:34.611Z,12.10
2019-03-25T10:32:37.975Z,12.20
2019-03-25T10:34:41.349Z,12.20
2019-03-25T10:36:47.529Z,12.20
2019-03-25T10:38:50.843Z,12.20
2019-03-25T10:40:54.168Z,12.30
2019-03-25T10:42:57.516Z,12.30
2019-03-25T10:45:00.902Z,12.40
2019-03-25T10:47:07.104Z,12.40
2019-03-25T10:49:10.409Z,12.50
2019-03-25T10:51:13.868Z,12.50
2019-03-25T10:53:17.247Z,12.50
2019-03-25T10:55:20.608Z,12.50
2019-03-25T10:57:24.017Z,12.50
2019-03-25T10:59:27.298Z,12.50
2019-03-25T11:01:30.603Z,12.50
2019-03-25T11:03:34.028Z,12.40
2019-03-25T11:05:37.325Z,12.30
2019-03-25T11:09:44.109Z,12.30
2019-03-25T11:11:47.461Z,12.20
2019-03-25T11:13:54.645Z,12.20
2019-03-25T11:15:58.006Z,12.30
2019-03-25T11:18:01.383Z,12.30
2019-03-25T11:20:09.453Z,12.30
2019-03-25T11:22:15.641Z,12.30
2019-03-25T11:24:19.014Z,12.30
2019-03-25T11:26:22.409Z,12.30
2019-03-25T11:28:25.704Z,12.30
2019-03-25T11:30:52.427Z,12.40
2019-03-25T11:32:55.789Z,12.40
2019-03-25T11:34:59.082Z,12.40
2019-03-25T11:37:02.471Z,12.30
2019-03-25T11:39:07.591Z,12.30
2019-03-25T11:41:10.951Z,12.20
2019-03-25T11:43:14.277Z,12.20
2019-03-25T11:45:17.770Z,12.10
2019-03-25T11:47:21.060Z,12.10
2019-03-25T11:49:24.471Z,12.00
2019-03-25T11:51:27.829Z,11.90
2019-03-25T11:53:31.186Z,11.90
2019-03-25T11:55:34.500Z,11.80
2019-03-25T11:57:37.877Z,11.80
2019-03-25T11:59:41.181Z,11.80
2019-03-25T12:01:44.579Z,11.80
2019-03-25T12:03:47.935Z,11.80
2019-03-25T12:05:51.306Z,11.80
2019-03-25T12:07:54.614Z,11.80
2019-03-25T12:09:57.973Z,11.90
2019-03-25T12:12:01.604Z,11.90
2019-03-25T12:14:05.069Z,11.90
2019-03-25T12:16:08.360Z,12.00
2019-03-25T12:18:11.658Z,12.00
2019-03-25T12:20:15.066Z,12.00
2019-03-25T12:22:18.354Z,12.10
2019-03-25T12:24:21.738Z,12.10
2019-03-25T12:26:26.055Z,12.10
2019-03-25T12:28:29.794Z,12.10
2019-03-25T12:30:35.820Z,12.10
2019-03-25T12:32:39.220Z,12.00
2019-03-25T12:34:42.574Z,12.00
2019-03-25T12:36:45.922Z,11.90
2019-03-25T12:38:49.396Z,11.90
2019-03-25T12:40:52.712Z,11.90
2019-03-25T12:42:56.067Z,11.90
2019-03-25T12:44:59.446Z,12.00
2019-03-25T12:47:02.741Z,12.00
2019-03-25T12:49:06.094Z,12.00
2019-03-25T12:51:09.402Z,12.00
2019-03-25T12:53:12.682Z,12.10
2019-03-25T12:55:16.710Z,12.10
2019-03-25T12:57:20.042Z,12.20
2019-03-25T12:59:23.397Z,12.20
2019-03-25T13:01:26.768Z,12.20
2019-03-25T13:03:30.148Z,12.30
2019-03-25T13:05:33.516Z,12.30
2019-03-25T13:07:36.927Z,12.30
2019-03-25T13:09:40.280Z,12.40
2019-03-25T13:11:43.642Z,12.40
2019-03-25T13:13:46.997Z,12.40
2019-03-25T13:15:50.448Z,12.40
2019-03-25T13:17:54.119Z,12.40
2019-03-25T13:19:57.488Z,12.40
2019-03-25T13:22:00.816Z,12.40
2019-03-25T13:24:04.107Z,12.50
2019-03-25T13:26:07.470Z,12.50
2019-03-25T13:28:10.855Z,12.50
2019-03-25T13:30:14.276Z,12.50
2019-03-25T13:32:17.582Z,12.50
2019-03-25T13:34:20.973Z,12.50
2019-03-25T13:36:24.325Z,12.50
2019-03-25T13:38:30.982Z,12.50
2019-03-25T13:40:34.329Z,12.50
2019-03-25T13:42:37.655Z,12.40
2019-03-25T13:44:41.010Z,12.40
2019-03-25T13:46:44.429Z,12.40
2019-03-25T13:48:47.702Z,12.40
2019-03-25T13:50:50.995Z,12.40
2019-03-25T13:52:54.376Z,12.40
2019-03-25T13:54:57.725Z,12.40
2019-03-25T13:57:01.172Z,12.40
2019-03-25T13:59:04.472Z,12.40
2019-03-25T14:01:07.780Z,12.40
2019-03-25T14:03:11.172Z,12.40
2019-03-25T14:05:14.525Z,12.40
2019-03-25T14:07:17.882Z,12.30
2019-03-25T14:09:21.229Z,12.40
2019-03-25T14:11:24.667Z,12.30
2019-03-25T14:13:28.060Z,12.30
2019-03-25T14:15:31.433Z,12.30
2019-03-25T14:17:34.721Z,12.40
2019-03-25T14:19:38.085Z,12.30
2019-03-25T14:21:41.849Z,12.30
2019-03-25T14:23:45.201Z,12.30
2019-03-25T14:25:50.121Z,12.40
2019-03-25T14:27:56.276Z,12.30
2019-03-25T14:30:02.362Z,12.30
2019-03-25T14:32:05.736Z,12.30
2019-03-25T14:34:09.111Z,12.30
2019-03-25T14:36:12.515Z,12.30
2019-03-25T14:38:15.861Z,12.30
2019-03-25T14:40:19.255Z,12.30
2019-03-25T14:42:26.103Z,12.30
2019-03-25T14:44:29.469Z,12.30
2019-03-25T14:46:32.929Z,12.30
2019-03-25T14:48:36.443Z,12.30
2019-03-25T14:50:39.857Z,12.30
2019-03-25T14:52:43.207Z,12.30
2019-03-25T14:54:46.518Z,12.30
2019-03-25T14:56:49.906Z,12.30
2019-03-25T14:58:53.273Z,12.30
2019-03-25T15:00:56.769Z,12.30
2019-03-25T15:03:00.172Z,12.30
2019-03-25T15:05:04.615Z,12.30
2019-03-25T15:07:07.994Z,12.30
2019-03-25T15:09:11.421Z,12.30
2019-03-25T15:11:14.729Z,12.20
2019-03-25T15:13:18.108Z,12.30
2019-03-25T15:15:21.660Z,12.30
2019-03-25T15:17:25.068Z,12.30
2019-03-25T15:19:28.356Z,12.40
2019-03-25T15:21:31.853Z,12.40
2019-03-25T15:23:35.191Z,12.40
2019-03-25T15:25:40.202Z,12.40
2019-03-25T15:27:43.561Z,12.40
2019-03-25T15:29:47.073Z,12.50
2019-03-25T15:32:00.708Z,12.50
2019-03-25T15:34:04.475Z,12.50
2019-03-25T15:36:07.868Z,12.60
2019-03-25T15:38:11.255Z,12.50
2019-03-25T15:40:14.675Z,12.60
2019-03-25T15:42:20.871Z,12.60
2019-03-25T15:44:24.606Z,12.60
2019-03-25T15:46:28.238Z,12.60
2019-03-25T15:48:51.074Z,12.60
2019-03-25T15:50:54.362Z,12.50
2019-03-25T15:53:00.450Z,12.50
2019-03-25T15:55:08.261Z,12.50
2019-03-25T15:57:11.652Z,12.50
2019-03-25T15:59:14.948Z,12.50
2019-03-25T16:01:18.292Z,12.50
2019-03-25T16:03:21.678Z,12.50
2019-03-25T16:05:25.054Z,12.50
2019-03-25T16:07:28.507Z,12.40
2019-03-25T16:09:31.861Z,12.40
2019-03-25T16:11:35.243Z,12.40
2019-03-25T16:13:38.918Z,12.40
2019-03-25T16:15:42.659Z,12.40
2019-03-25T16:17:48.854Z,12.40
2019-03-25T16:19:52.184Z,12.40
2019-03-25T16:21:58.363Z,12.40
2019-03-25T16:24:01.731Z,12.30
2019-03-25T16:26:05.981Z,12.30
2019-03-25T16:28:09.379Z,12.40
2019-03-25T16:30:13.846Z,12.30
2019-03-25T16:32:17.280Z,12.30
2019-03-25T16:34:20.706Z,12.30
2019-03-25T16:36:24.026Z,12.30
2019-03-25T16:38:27.438Z,12.30
2019-03-25T16:40:30.812Z,12.30
2019-03-25T16:42:34.180Z,12.30
2019-03-25T16:44:37.668Z,12.30
2019-03-25T16:46:41.040Z,12.30
2019-03-25T16:48:45.975Z,12.20
2019-03-25T16:50:49.304Z,12.30
2019-03-25T16:52:52.682Z,12.30
2019-03-25T16:54:56.047Z,12.30
2019-03-25T16:56:59.450Z,12.30
2019-03-25T16:59:03.024Z,12.30
2019-03-25T17:01:10.148Z,12.30
2019-03-25T17:03:11.509Z,12.20
2019-03-25T17:05:14.887Z,12.20
2019-03-25T17:07:18.243Z,12.20
2019-03-25T17:09:21.574Z,12.20
2019-03-25T17:11:24.862Z,12.20
2019-03-25T17:13:28.471Z,12.20
2019-03-25T17:15:31.818Z,12.10
2019-03-25T17:17:37.942Z,12.10
2019-03-25T17:19:41.236Z,12.10
2019-03-25T17:21:44.766Z,12.10
2019-03-25T17:23:48.596Z,12.00
2019-03-25T17:25:53.221Z,12.00
2019-03-25T17:27:56.891Z,12.00
2019-03-25T17:30:00.399Z,12.00
2019-03-25T17:32:03.850Z,12.00
2019-03-25T17:34:07.266Z,12.00
2019-03-25T17:36:10.707Z,11.90
2019-03-25T17:38:17.037Z,11.90
2019-03-25T17:40:20.567Z,11.90
2019-03-25T17:42:24.032Z,11.90
2019-03-25T17:44:27.338Z,11.90
2019-03-25T17:46:30.753Z,11.90
2019-03-25T17:48:34.044Z,11.90
2019-03-25T17:50:37.412Z,11.90
2019-03-25T17:52:40.812Z,11.90
2019-03-25T17:54:44.203Z,11.80
2019-03-25T17:56:50.589Z,11.80
2019-03-25T17:58:55.256Z,11.80
2019-03-25T18:01:04.424Z,11.80
2019-03-25T18:03:11.285Z,11.80
2019-03-25T18:05:15.571Z,11.70
2019-03-25T18:07:18.928Z,11.70
2019-03-25T18:09:22.340Z,11.70
2019-03-25T18:11:25.718Z,11.70
2019-03-25T18:13:29.070Z,11.70
2019-03-25T18:15:33.270Z,11.70
2019-03-25T18:17:36.595Z,11.70
2019-03-25T18:19:39.951Z,11.70
2019-03-25T18:21:46.132Z,11.70
2019-03-25T18:23:52.257Z,11.70
2019-03-25T18:25:56.010Z,11.70
2019-03-25T18:27:59.280Z,11.70
2019-03-25T18:30:02.796Z,11.70
2019-03-25T18:32:06.099Z,11.60
2019-03-25T18:34:09.435Z,11.60
2019-03-25T18:36:12.834Z,11.60
2019-03-25T18:38:16.168Z,11.60
2019-03-25T18:40:19.515Z,11.60
2019-03-25T18:42:22.911Z,11.60
2019-03-25T18:44:29.357Z,11.60
2019-03-25T18:46:33.481Z,11.60
2019-03-25T18:48:37.026Z,11.60
2019-03-25T18:50:40.405Z,11.60
2019-03-25T18:52:43.962Z,11.50
2019-03-25T18:54:51.879Z,11.50
2019-03-25T18:56:57.965Z,11.50
2019-03-25T18:59:01.347Z,11.50
2019-03-25T19:01:24.165Z,11.50
2019-03-25T19:03:27.466Z,11.40
2019-03-25T19:05:30.978Z,11.40
2019-03-25T19:07:36.669Z,11.40
2019-03-25T19:09:40.425Z,11.40
2019-03-25T19:11:43.791Z,11.40
2019-03-25T19:13:47.123Z,11.40
2019-03-25T19:15:50.465Z,11.30
2019-03-25T19:17:53.856Z,11.40
2019-03-25T19:19:57.315Z,11.40
2019-03-25T19:22:00.697Z,11.40
2019-03-25T19:24:03.989Z,11.30
2019-03-25T19:26:07.582Z,11.30
2019-03-25T19:28:10.973Z,11.30
2019-03-25T19:30:14.317Z,11.30
2019-03-25T19:32:18.021Z,11.30
2019-03-25T19:34:24.551Z,11.30
2019-03-25T19:36:27.882Z,11.30
2019-03-25T19:38:35.615Z,11.30
2019-03-25T19:40:38.941Z,11.40
2019-03-25T19:42:42.327Z,11.30
2019-03-25T19:44:45.757Z,11.30
2019-03-25T19:46:49.104Z,11.30
2019-03-25T19:48:52.432Z,11.30
2019-03-25T19:50:55.862Z,11.30
2019-03-25T19:52:59.265Z,11.30
2019-03-25T19:55:02.630Z,11.30
2019-03-25T19:57:06.022Z,11.30
2019-03-25T19:59:09.437Z,11.30
2019-03-25T20:01:12.806Z,11.40
2019-03-25T20:03:16.198Z,11.30
2019-03-25T20:05:19.473Z,11.30
2019-03-25T20:07:22.784Z,11.40
2019-03-25T20:09:26.175Z,11.40
2019-03-25T20:11:29.477Z,11.40
2019-03-25T20:13:32.897Z,11.40
2019-03-25T20:15:46.063Z,11.40
2019-03-25T20:17:41.919Z,11.40
2019-03-25T20:19:48.031Z,11.40
2019-03-25T20:21:51.385Z,11.40
2019-03-25T20:23:54.777Z,11.40
2019-03-25T20:25:58.071Z,11.40
2019-03-25T20:28:01.456Z,11.40
2019-03-25T20:30:09.856Z,11.30
2019-03-25T20:32:13.216Z,11.40
2019-03-25T20:34:16.587Z,11.40
2019-03-25T20:36:20.009Z,11.30
2019-03-25T20:38:23.439Z,11.30
2019-03-25T20:40:26.745Z,11.30
2019-03-25T20:42:30.096Z,11.30
2019-03-25T20:44:33.458Z,11.30
2019-03-25T20:46:36.789Z,11.30
2019-03-25T20:48:40.134Z,11.30
2019-03-25T20:50:43.468Z,11.30
2019-03-25T20:52:46.809Z,11.30
2019-03-25T20:54:50.217Z,11.30
2019-03-25T20:56:53.579Z,11.30
2019-03-25T20:58:56.897Z,11.30
2019-03-25T21:01:00.340Z,11.30
2019-03-25T21:03:03.657Z,11.30
2019-03-25T21:05:07.018Z,11.30
2019-03-25T21:07:10.430Z,11.30
2019-03-25T21:09:13.778Z,11.30
2019-03-25T21:11:17.236Z,11.30
2019-03-25T21:13:20.657Z,11.20
2019-03-25T21:15:24.093Z,11.20
2019-03-25T21:17:27.481Z,11.20
2019-03-25T21:19:30.960Z,11.20
2019-03-25T21:21:34.255Z,11.20
2019-03-25T21:23:37.641Z,11.20
2019-03-25T21:25:41.083Z,11.20
2019-03-25T21:27:44.517Z,11.20
2019-03-25T21:29:47.886Z,11.20
2019-03-25T21:31:51.311Z,11.20
2019-03-25T21:33:55.026Z,11.10
2019-03-25T21:36:01.494Z,11.20
2019-03-25T21:38:04.873Z,11.20
2019-03-25T21:40:08.286Z,11.20
2019-03-25T21:42:11.688Z,11.20
2019-03-25T21:44:17.891Z,11.10
2019-03-25T21:46:21.251Z,11.10
2019-03-25T21:48:24.632Z,11.10
2019-03-25T21:50:28.016Z,11.10
2019-03-25T21:52:31.341Z,11.10
2019-03-25T21:54:34.990Z,11.10
2019-03-25T21:56:38.404Z,11.10
2019-03-25T21:58:41.805Z,11.10
2019-03-25T22:00:45.669Z,11.10
2019-03-25T22:02:49.040Z,11.10
2019-03-25T22:04:52.340Z,11.00
2019-03-25T22:06:58.982Z,11.00
2019-03-25T22:09:02.312Z,11.00
2019-03-25T22:11:05.676Z,11.00
2019-03-25T22:13:09.038Z,11.00
2019-03-25T22:15:15.152Z,11.00
2019-03-25T22:17:18.521Z,11.00
2019-03-25T22:19:21.805Z,11.00
2019-03-25T22:21:25.178Z,11.00
2019-03-25T22:23:28.589Z,11.00
2019-03-25T22:25:31.886Z,10.90
2019-03-25T22:27:35.305Z,11.00
2019-03-25T22:29:38.628Z,11.00
2019-03-25T22:31:41.931Z,10.90
2019-03-25T22:33:45.359Z,10.90
2019-03-25T22:35:48.729Z,10.90
2019-03-25T22:37:52.027Z,10.90
2019-03-25T22:39:55.399Z,10.90
2019-03-25T22:41:58.718Z,10.90
2019-03-25T22:44:02.063Z,10.90
2019-03-25T22:46:05.360Z,10.90
2019-03-25T22:48:08.687Z,10.90
2019-03-25T22:50:15.291Z,10.90
2019-03-25T22:52:18.664Z,10.90
2019-03-25T22:54:21.980Z,10.90
2019-03-25T22:56:25.247Z,10.90
2019-03-25T22:58:28.538Z,10.90
2019-03-25T23:00:33.486Z,10.90
2019-03-25T23:02:36.858Z,10.90
2019-03-25T23:04:40.250Z,10.90
2019-03-25T23:06:43.582Z,10.90
2019-03-25T23:08:46.941Z,10.90
2019-03-25T23:10:50.303Z,11.00
2019-03-25T23:12:53.625Z,10.90
2019-03-25T23:14:56.982Z,11.00
2019-03-25T23:17:00.293Z,10.90
2019-03-25T23:19:03.695Z,11.00
2019-03-25T23:21:10.285Z,11.00
2019-03-25T23:23:16.522Z,11.00
2019-03-25T23:25:19.842Z,10.90
2019-03-25T23:27:26.030Z,11.00
2019-03-25T23:29:31.374Z,11.00
2019-03-25T23:31:34.378Z,10.90
2019-03-25T23:33:37.778Z,10.90
2019-03-25T23:35:41.160Z,10.90
2019-03-25T23:37:44.536Z,11.00
2019-03-25T23:39:47.917Z,10.90
2019-03-25T23:41:51.333Z,11.00
2019-03-25T23:43:57.645Z,10.90
2019-03-25T23:46:01.819Z,11.00
2019-03-25T23:48:05.192Z,11.00
2019-03-25T23:50:08.489Z,11.00
2019-03-25T23:52:11.902Z,10.90
2019-03-25T23:54:15.200Z,11.00
2019-03-25T23:56:18.897Z,10.90
2019-03-25T23:58:22.471Z,10.90
